createdAt,value
2023-03-23T15:58:30.164Z,5.30
2023-03-23T16:00:57.724Z,5.07
2023-03-23T16:03:28.531Z,5.10
2023-03-23T16:05:57.558Z,5.17
2023-03-23T16:08:24.459Z,4.30
2023-03-23T16:10:51.346Z,4.70
2023-03-23T16:13:18.467Z,5.13
2023-03-23T16:15:47.386Z,5.57
2023-03-23T16:18:18.987Z,4.37
2023-03-23T16:20:46.189Z,4.40
2023-03-23T16:23:12.922Z,4.37
2023-03-23T16:25:39.992Z,4.73
2023-03-23T16:28:07.201Z,4.10
2023-03-23T16:30:35.976Z,4.40
2023-03-23T16:33:02.806Z,3.87
2023-03-23T16:35:29.545Z,4.13
2023-03-23T16:38:07.921Z,4.23
2023-03-23T16:40:37.119Z,4.80
2023-03-23T16:43:09.256Z,4.90
2023-03-23T16:45:37.716Z,5.00
2023-03-23T16:48:05.390Z,4.67
2023-03-23T16:50:35.402Z,4.97
2023-03-23T16:53:02.870Z,5.73
2023-03-23T16:55:31.312Z,4.70
2023-03-23T16:58:13.113Z,5.57
2023-03-23T17:00:44.033Z,4.80
2023-03-23T17:03:11.347Z,5.37
2023-03-23T17:05:38.311Z,5.40
2023-03-23T17:08:05.945Z,4.43
2023-03-23T17:10:32.858Z,5.10
2023-03-23T17:12:59.625Z,6.73
2023-03-23T17:15:26.521Z,5.47
2023-03-23T17:17:54.965Z,5.30
2023-03-23T17:20:23.044Z,5.83
2023-03-23T17:22:50.402Z,5.93
2023-03-23T17:25:17.200Z,5.80
2023-03-23T17:27:44.055Z,5.20
2023-03-23T17:30:11.699Z,5.73
2023-03-23T17:32:39.131Z,6.33
2023-03-23T17:35:06.656Z,5.65
2023-03-23T17:37:34.015Z,7.03
2023-03-23T17:40:00.760Z,6.63
2023-03-23T17:42:27.980Z,7.80
2023-03-23T17:44:54.701Z,10.20
2023-03-23T17:47:21.609Z,8.43
2023-03-23T17:49:48.344Z,7.70
2023-03-23T17:52:15.718Z,7.63
2023-03-23T17:54:42.649Z,9.23
2023-03-23T17:57:09.478Z,10.93
2023-03-23T17:59:36.364Z,8.23
2023-03-23T18:02:03.484Z,10.30
2023-03-23T18:04:30.259Z,9.80
2023-03-23T18:06:58.185Z,8.50
2023-03-23T18:09:25.716Z,9.13
2023-03-23T18:11:53.057Z,9.67
2023-03-23T18:14:20.812Z,8.93
2023-03-23T18:16:48.117Z,8.90
2023-03-23T18:19:15.044Z,8.70
2023-03-23T18:21:42.952Z,8.50
2023-03-23T18:24:11.516Z,7.93
2023-03-23T18:26:38.285Z,8.13
2023-03-23T18:29:05.039Z,8.20
2023-03-23T18:31:32.926Z,10.10
2023-03-23T18:34:00.137Z,10.63
2023-03-23T18:36:28.391Z,7.17
2023-03-23T18:38:56.849Z,8.97
2023-03-23T18:41:24.095Z,7.80
2023-03-23T18:43:51.021Z,6.70
2023-03-23T18:46:18.164Z,7.10
2023-03-23T18:48:45.188Z,6.30
2023-03-23T18:51:12.466Z,6.20
2023-03-23T18:53:40.617Z,6.63
2023-03-23T18:56:15.894Z,5.93
2023-03-23T18:58:43.399Z,7.10
2023-03-23T19:01:13.253Z,6.40
2023-03-23T19:03:41.078Z,6.70
2023-03-23T19:06:18.955Z,7.90
2023-03-23T19:08:46.527Z,6.97
2023-03-23T19:11:13.708Z,7.03
2023-03-23T19:13:50.316Z,12.20
2023-03-23T19:16:25.449Z,15.30
2023-03-23T19:18:52.684Z,10.60
2023-03-23T19:21:22.236Z,5.90
2023-03-23T19:23:52.349Z,5.40
2023-03-23T19:26:34.827Z,6.87
2023-03-23T19:29:25.461Z,6.40
2023-03-23T19:31:51.829Z,5.23
2023-03-23T19:34:18.908Z,5.47
2023-03-23T19:36:54.463Z,5.60
2023-03-23T19:39:23.722Z,5.50
2023-03-23T19:41:51.205Z,5.10
2023-03-23T19:44:18.230Z,5.43
2023-03-23T19:46:45.357Z,4.80
2023-03-23T19:49:12.303Z,4.47
2023-03-23T19:51:39.797Z,4.57
2023-03-23T19:54:09.420Z,5.00
2023-03-23T19:56:36.830Z,4.30
2023-03-23T19:59:04.986Z,4.37
2023-03-23T20:01:32.126Z,5.77
2023-03-23T20:04:00.125Z,5.07
2023-03-23T20:06:29.278Z,4.07
2023-03-23T20:09:00.098Z,3.40
2023-03-23T20:11:28.272Z,3.63
2023-03-23T20:13:55.483Z,4.00
2023-03-23T20:16:22.524Z,3.60
2023-03-23T20:18:50.322Z,4.17
2023-03-23T20:21:22.384Z,3.77
2023-03-23T20:23:56.286Z,4.00
2023-03-23T20:26:23.278Z,3.60
2023-03-23T20:28:50.714Z,4.00
2023-03-23T20:31:24.415Z,3.70
2023-03-23T20:34:01.966Z,3.70
2023-03-23T20:36:35.686Z,4.00
2023-03-23T20:39:08.316Z,4.00
2023-03-23T20:41:42.069Z,3.60
2023-03-23T20:44:13.985Z,3.63
2023-03-23T20:46:45.792Z,3.77
2023-03-23T20:49:13.075Z,3.87
2023-03-23T20:51:40.022Z,3.60
2023-03-23T20:54:06.925Z,3.37
2023-03-23T20:56:34.551Z,3.50
2023-03-23T20:59:01.926Z,3.33
2023-03-23T21:01:28.762Z,3.20
2023-03-23T21:03:56.948Z,3.40
2023-03-23T21:06:28.295Z,3.30
2023-03-23T21:08:56.976Z,3.57
2023-03-23T21:11:25.559Z,3.10
2023-03-23T21:13:52.714Z,3.47
2023-03-23T21:16:20.073Z,4.07
2023-03-23T21:18:47.592Z,3.77
2023-03-23T21:21:15.016Z,3.77
2023-03-23T21:23:46.656Z,3.80
2023-03-23T21:26:17.286Z,3.27
2023-03-23T21:28:45.346Z,3.90
2023-03-23T21:31:12.494Z,3.53
2023-03-23T21:33:39.323Z,3.43
2023-03-23T21:36:07.026Z,3.27
2023-03-23T21:38:34.028Z,3.40
2023-03-23T21:41:07.323Z,3.30
2023-03-23T21:43:34.434Z,3.70
2023-03-23T21:46:04.945Z,3.47
2023-03-23T21:48:33.034Z,3.77
2023-03-23T21:51:09.005Z,4.10
2023-03-23T21:53:37.076Z,3.37
2023-03-23T21:56:07.062Z,3.00
2023-03-23T21:58:34.409Z,3.60
2023-03-23T22:01:02.228Z,3.70
2023-03-23T22:03:32.860Z,3.80
2023-03-23T22:06:06.639Z,3.90
2023-03-23T22:08:33.629Z,3.77
2023-03-23T22:11:03.771Z,4.80
2023-03-23T22:13:32.339Z,4.47
2023-03-23T22:16:01.269Z,4.40
2023-03-23T22:18:28.582Z,5.57
2023-03-23T22:20:56.621Z,4.90
2023-03-23T22:23:23.598Z,5.20
2023-03-23T22:25:50.427Z,3.43
2023-03-23T22:28:19.554Z,3.60
2023-03-23T22:30:47.718Z,3.20
2023-03-23T22:33:14.734Z,3.37
2023-03-23T22:35:41.544Z,3.40
2023-03-23T22:38:08.356Z,3.50
2023-03-23T22:40:35.306Z,3.27
2023-03-23T22:43:03.530Z,3.47
2023-03-23T22:45:31.465Z,3.07
2023-03-23T22:47:59.809Z,3.03
2023-03-23T22:50:27.676Z,3.07
2023-03-23T22:52:54.450Z,3.60
2023-03-23T22:55:21.259Z,4.20
2023-03-23T22:57:48.020Z,3.50
2023-03-23T23:00:15.129Z,3.40
2023-03-23T23:02:45.401Z,3.00
2023-03-23T23:05:13.299Z,3.00
2023-03-23T23:07:40.747Z,3.03
2023-03-23T23:10:08.210Z,3.10
2023-03-23T23:12:35.398Z,2.70
2023-03-23T23:15:07.117Z,2.90
2023-03-23T23:17:34.734Z,3.77
2023-03-23T23:20:05.389Z,3.00
2023-03-23T23:22:32.600Z,2.93
2023-03-23T23:24:59.836Z,3.40
2023-03-23T23:27:26.755Z,3.00
2023-03-23T23:29:53.902Z,3.37
2023-03-23T23:32:20.779Z,3.40
2023-03-23T23:34:48.482Z,3.37
2023-03-23T23:37:15.429Z,2.77
2023-03-23T23:39:42.419Z,3.00
2023-03-23T23:42:09.245Z,3.13
2023-03-23T23:44:36.141Z,3.00
2023-03-23T23:47:03.093Z,3.20
2023-03-23T23:49:31.808Z,3.33
2023-03-23T23:51:58.625Z,3.43
2023-03-23T23:54:30.334Z,3.00
2023-03-23T23:56:59.193Z,2.90
2023-03-23T23:59:26.833Z,2.87
